Keith, Kentucky
Current Conditions -  °F | °C
As of 5:55 AM on Monday 20 Oct 2014 (Local Time) from KI35 Reporting Station
Overcast Overcast  
Wind Chill: 41°   Ceiling: 100
Heat Index: 41°   Visibility: 0.25mi
Dew Point: 41°   Wind: 0mph
Humidity: 100%   Direction: NA
Pressure: 30.09"   Gusts: NA
Location:  36.8769°N, 83.3223°W
Report Text: KI35 200955Z AUTO 00000KT 1/4SM OVC001 05/05 A3009 RMK AO1
Loading
Personal Weather Stations






























Interactive Weather Map
Tropical Storm Tracking
New forecast layout! Learn more

10-Day Weather Forecast

Advertisements
Track Severe Weather on mobile